Time;durP1;ratioP1;P1;durP2;ratioP2;P2;SDS_P1;SDS_P2;PMS_P1;PMS_P2;Temp;Humidity;BMP_temperature;BMP_pressure;BME280_temperature;BME280_humidity;BME280_pressure;Samples;Min_cycle;Max_cycle;Signal;HPM_P1;HPM_P2
2022/06/15 00:01:27;;;;;;;16.40;6.40;;;11.00;99.90;;;;;;4973772;28;20363;-51
2022/06/15 00:03:54;;;;;;;12.98;5.97;;;11.00;99.90;;;;;;4973695;28;20082;-52
2022/06/15 00:06:25;;;;;;;11.70;5.30;;;11.00;99.90;;;;;;4973521;28;20023;-51
2022/06/15 00:08:53;;;;;;;12.10;5.65;;;11.00;99.90;;;;;;4973607;28;20062;-51
2022/06/15 00:11:25;;;;;;;14.07;5.57;;;11.10;99.90;;;;;;4973397;28;20868;-51
2022/06/15 00:13:53;;;;;;;13.07;5.75;;;11.20;99.90;;;;;;4973389;28;20030;-52
2022/06/15 00:16:20;;;;;;;11.30;5.57;;;11.20;99.90;;;;;;4973218;28;20053;-51
2022/06/15 00:18:46;;;;;;;12.00;5.63;;;11.20;99.90;;;;;;4973373;28;20015;-52
2022/06/15 00:21:14;;;;;;;10.07;5.35;;;11.20;99.90;;;;;;4973325;28;20026;-51
2022/06/15 00:23:40;;;;;;;9.25;5.80;;;11.10;99.90;;;;;;4973382;28;20023;-51
2022/06/15 00:26:06;;;;;;;9.43;4.90;;;11.10;99.90;;;;;;4973165;28;20094;-51
2022/06/15 00:28:33;;;;;;;20.88;5.72;;;11.10;99.90;;;;;;4973110;28;20105;-52
2022/06/15 00:31:00;;;;;;;8.05;5.18;;;11.20;99.90;;;;;;4973313;28;20085;-51
2022/06/15 00:33:27;;;;;;;11.60;5.70;;;11.00;99.90;;;;;;4972956;28;20050;-52
2022/06/15 00:36:04;;;;;;;;;;;10.80;99.90;;;;;;4973752;28;20039;-51
2022/06/15 00:38:36;;;;;;;13.82;6.95;;;10.60;99.90;;;;;;4973123;28;19944;-51
2022/06/15 00:41:03;;;;;;;13.18;6.25;;;10.40;99.90;;;;;;4973118;28;20445;-51
2022/06/15 00:43:35;;;;;;;10.18;6.30;;;10.30;99.90;;;;;;4972647;28;20038;-51
2022/06/15 00:46:13;;;;;;;11.82;6.60;;;10.40;99.90;;;;;;4973092;28;20066;-51
2022/06/15 00:48:39;;;;;;;18.42;6.32;;;10.50;99.90;;;;;;4972843;28;20077;-51
2022/06/15 00:51:05;;;;;;;12.57;6.38;;;10.70;99.90;;;;;;4973048;28;20038;-52
2022/06/15 00:53:31;;;;;;;10.38;6.18;;;10.80;99.90;;;;;;4972703;28;20831;-52
2022/06/15 00:55:57;;;;;;;12.43;6.43;;;10.80;99.90;;;;;;4974338;28;20114;-51
2022/06/15 00:58:23;;;;;;;10.07;6.85;;;10.90;99.90;;;;;;4991509;28;20443;-53
2022/06/15 01:00:53;;;;;;;12.60;7.25;;;10.80;99.90;;;;;;4992217;28;20100;-53
2022/06/15 01:03:19;;;;;;;13.43;7.50;;;10.80;99.90;;;;;;4992187;28;20180;-52
2022/06/15 01:06:01;;;;;;;14.32;6.85;;;10.80;99.90;;;;;;4992048;28;20378;-51
2022/06/15 01:08:50;;;;;;;14.40;6.50;;;10.70;99.90;;;;;;4992294;28;20037;-52
2022/06/15 01:11:37;;;;;;;14.65;8.45;;;10.70;99.90;;;;;;4992152;28;20025;-52
2022/06/15 01:14:31;;;;;;;12.15;6.22;;;10.40;99.90;;;;;;4991687;28;20462;-52
2022/06/15 01:17:12;;;;;;;16.15;7.57;;;10.50;99.90;;;;;;4975812;28;20038;-50
2022/06/15 01:20:08;;;;;;;15.93;7.03;;;10.60;99.90;;;;;;4991733;28;20069;-53
2022/06/15 01:23:11;;;;;;;14.75;7.18;;;10.50;99.90;;;;;;4991874;28;20080;-53
2022/06/15 01:26:24;;;;;;;11.77;6.72;;;10.40;99.90;;;;;;4991729;28;20061;-52
2022/06/15 01:29:19;;;;;;;16.95;7.43;;;10.50;99.90;;;;;;4960618;28;20034;-51
2022/06/15 01:31:56;;;;;;;18.60;7.78;;;10.40;99.90;;;;;;4954948;28;20134;-51
2022/06/15 01:34:38;;;;;;;19.73;8.52;;;10.40;99.90;;;;;;4991346;28;20112;-52
2022/06/15 01:37:21;;;;;;;17.58;9.23;;;10.30;99.90;;;;;;4991421;28;20092;-51
2022/06/15 01:40:20;;;;;;;23.33;7.78;;;10.30;99.90;;;;;;4991806;28;20602;-53
2022/06/15 01:42:59;;;;;;;;;;;10.10;99.90;;;;;;4982041;28;20038;-53
2022/06/15 01:45:29;;;;;;;19.88;8.05;;;10.20;99.90;;;;;;4990962;28;20333;-51
2022/06/15 01:48:00;;;;;;;16.65;7.68;;;10.30;99.90;;;;;;4991313;28;20497;-51
2022/06/15 01:50:32;;;;;;;13.52;6.30;;;10.30;99.90;;;;;;4991223;28;20034;-52
2022/06/15 01:53:18;;;;;;;13.68;7.38;;;10.30;99.90;;;;;;4991241;28;20118;-53
2022/06/15 01:56:02;;;;;;;14.68;7.60;;;10.20;99.90;;;;;;4983775;28;20522;-52
2022/06/15 01:58:32;;;;;;;17.73;7.50;;;10.10;99.90;;;;;;4990875;28;20058;-51
2022/06/15 02:01:13;;;;;;;11.93;7.00;;;10.30;99.90;;;;;;4991251;28;20033;-51
2022/06/15 02:03:58;;;;;;;14.85;6.40;;;10.30;99.90;;;;;;4989617;28;20026;-53
2022/06/15 02:06:48;;;;;;;16.80;8.15;;;10.20;99.90;;;;;;4990890;28;20027;-51
2022/06/15 02:09:26;;;;;;;16.33;8.40;;;10.00;99.90;;;;;;4990190;28;20033;-51
2022/06/15 02:11:52;;;;;;;17.38;7.68;;;10.00;99.90;;;;;;4990971;28;20039;-51
2022/06/15 02:14:27;;;;;;;18.63;8.13;;;10.00;99.90;;;;;;4990571;28;20066;-53
2022/06/15 02:17:15;;;;;;;19.38;7.97;;;9.90;99.90;;;;;;4990556;28;20042;-53
2022/06/15 02:19:47;;;;;;;18.75;8.40;;;10.10;99.90;;;;;;4990858;28;20034;-53
2022/06/15 02:22:21;;;;;;;22.02;9.45;;;10.10;99.90;;;;;;4990868;28;20027;-51
2022/06/15 02:24:51;;;;;;;21.48;9.68;;;10.10;99.90;;;;;;4990843;28;20034;-52
2022/06/15 02:27:18;;;;;;;21.65;8.30;;;10.10;99.90;;;;;;4990428;28;20033;-53
2022/06/15 02:29:46;;;;;;;21.83;8.07;;;10.00;99.90;;;;;;4989245;28;20039;-52
2022/06/15 02:32:17;;;;;;;19.02;8.70;;;9.70;99.90;;;;;;4990358;28;20054;-51
2022/06/15 02:34:42;;;;;;;16.38;6.88;;;9.70;99.90;;;;;;4990529;28;20038;-52
2022/06/15 02:37:10;;;;;;;14.73;6.80;;;9.80;99.90;;;;;;4990491;28;20034;-52
2022/06/15 02:39:36;;;;;;;12.48;5.80;;;9.80;99.90;;;;;;4990521;28;20105;-51
2022/06/15 02:42:24;;;;;;;12.20;5.72;;;9.90;99.90;;;;;;4990276;28;20121;-52
2022/06/15 02:44:52;;;;;;;11.77;5.70;;;9.80;99.90;;;;;;4979935;28;20034;-51
2022/06/15 02:47:21;;;;;;;11.65;5.65;;;9.70;99.90;;;;;;4990601;28;20054;-51
2022/06/15 02:49:51;;;;;;;22.90;7.03;;;9.70;99.90;;;;;;4990386;28;20544;-52
2022/06/15 02:52:23;;;;;;;13.52;5.90;;;9.50;99.90;;;;;;4989027;28;20057;-51
2022/06/15 02:54:52;;;;;;;17.50;6.80;;;9.50;99.90;;;;;;4990144;28;20063;-52
2022/06/15 02:57:19;;;;;;;17.38;7.55;;;9.60;99.90;;;;;;4990297;28;20117;-52
2022/06/15 02:59:45;;;;;;;15.90;6.20;;;9.60;99.90;;;;;;4990171;28;20037;-52
2022/06/15 03:02:14;;;;;;;13.68;6.47;;;9.70;99.90;;;;;;4990348;28;20069;-52
2022/06/15 03:04:41;;;;;;;15.15;6.38;;;9.50;99.90;;;;;;4990071;28;20385;-51
2022/06/15 03:07:07;;;;;;;13.02;5.65;;;9.50;99.90;;;;;;4990364;28;20128;-52
2022/06/15 03:09:33;;;;;;;14.93;5.95;;;9.50;99.90;;;;;;4990468;28;20363;-51
2022/06/15 03:11:58;;;;;;;11.32;5.88;;;9.40;99.90;;;;;;4990371;28;20391;-52
2022/06/15 03:14:24;;;;;;;11.82;5.28;;;9.40;99.90;;;;;;4990004;28;20030;-51
2022/06/15 03:16:50;;;;;;;13.25;5.75;;;9.40;99.90;;;;;;4990372;28;20097;-52
2022/06/15 03:19:16;;;;;;;12.20;5.75;;;9.40;99.90;;;;;;4990080;28;20485;-53
2022/06/15 03:21:41;;;;;;;10.20;4.82;;;9.40;99.90;;;;;;4992432;28;20042;-51
2022/06/15 03:24:07;;;;;;;13.40;5.90;;;9.50;99.90;;;;;;4994180;28;20044;-52
2022/06/15 03:26:33;;;;;;;12.27;5.93;;;9.50;99.90;;;;;;4994018;28;20025;-51
2022/06/15 03:29:00;;;;;;;15.68;7.10;;;9.30;99.90;;;;;;4993752;28;20551;-51
2022/06/15 03:31:27;;;;;;;17.67;7.38;;;9.10;99.90;;;;;;4993646;28;20038;-54
2022/06/15 03:33:53;;;;;;;15.52;6.93;;;9.00;99.90;;;;;;4993498;28;20030;-51
2022/06/15 03:36:19;;;;;;;15.63;7.00;;;9.00;99.90;;;;;;4993908;28;20038;-51
2022/06/15 03:38:45;;;;;;;15.97;7.03;;;9.10;99.90;;;;;;4993735;28;20018;-52
2022/06/15 03:41:12;;;;;;;13.93;7.05;;;9.20;99.90;;;;;;4993608;28;20088;-53
2022/06/15 03:43:39;;;;;;;15.45;7.35;;;9.30;99.90;;;;;;4993521;28;20026;-53
2022/06/15 03:46:04;;;;;;;13.23;6.33;;;9.40;99.90;;;;;;4993256;28;20145;-54
2022/06/15 03:48:30;;;;;;;13.95;7.28;;;9.50;99.90;;;;;;4993428;28;20277;-51
2022/06/15 03:50:56;;;;;;;18.65;7.60;;;9.40;99.90;;;;;;4993621;28;20042;-52
2022/06/15 03:53:22;;;;;;;20.67;8.73;;;9.50;99.90;;;;;;4993623;28;20033;-52
2022/06/15 03:55:47;;;;;;;18.08;6.75;;;9.40;99.90;;;;;;4991591;28;20367;-53
2022/06/15 03:58:16;;;;;;;17.50;6.03;;;9.30;99.90;;;;;;4993187;28;20026;-53
2022/06/15 04:00:42;;;;;;;13.70;6.68;;;9.50;99.90;;;;;;4993161;28;20665;-52
2022/06/15 04:03:08;;;;;;;13.52;6.00;;;9.50;99.90;;;;;;4993081;28;20030;-52
2022/06/15 04:05:45;;;;;;;16.30;6.13;;;9.50;99.90;;;;;;4993228;28;20022;-53
2022/06/15 04:08:35;;;;;;;18.80;7.75;;;9.70;99.90;;;;;;4993144;28;20034;-52
2022/06/15 04:13:59;;;;;;;10.45;5.63;;;9.70;99.90;;;;;;4993264;28;20036;-53
2022/06/15 04:16:25;;;;;;;11.38;5.88;;;9.60;99.90;;;;;;4992888;28;20061;-51
2022/06/15 04:18:50;;;;;;;11.93;5.88;;;9.60;99.90;;;;;;4992995;28;20033;-52
2022/06/15 04:21:16;;;;;;;11.18;6.18;;;9.70;99.90;;;;;;4992925;28;20026;-53
2022/06/15 04:23:42;;;;;;;13.88;6.18;;;9.80;99.90;;;;;;4992834;28;20385;-52
2022/06/15 04:26:09;;;;;;;11.85;6.82;;;9.90;99.90;;;;;;4992541;28;20105;-53
2022/06/15 04:28:39;;;;;;;12.35;6.18;;;10.10;99.90;;;;;;4992802;28;20118;-52
2022/06/15 04:31:05;;;;;;;11.48;6.53;;;10.20;99.90;;;;;;4992541;28;20490;-52
2022/06/15 04:33:30;;;;;;;12.75;6.65;;;10.30;99.90;;;;;;4991343;28;20077;-53
2022/06/15 04:35:56;;;;;;;14.85;6.50;;;10.50;99.90;;;;;;4992576;28;20113;-53
2022/06/15 04:38:22;;;;;;;15.20;5.93;;;10.30;99.90;;;;;;4992591;28;20429;-53
2022/06/15 04:40:48;;;;;;;14.73;5.65;;;10.50;99.90;;;;;;4992409;28;20632;-53
2022/06/15 04:43:14;;;;;;;11.27;5.72;;;10.60;99.90;;;;;;4992462;28;20049;-53
2022/06/15 04:45:39;;;;;;;12.15;5.78;;;10.60;99.90;;;;;;4992211;28;20030;-52
2022/06/15 04:48:06;;;;;;;13.15;6.47;;;10.80;99.90;;;;;;4992471;28;20053;-53
2022/06/15 04:50:32;;;;;;;13.05;5.25;;;10.80;99.90;;;;;;4992397;28;20029;-52
2022/06/15 04:52:59;;;;;;;15.32;5.40;;;11.00;99.90;;;;;;4992431;28;20428;-53
2022/06/15 04:55:25;;;;;;;13.77;5.85;;;11.00;99.90;;;;;;4992084;28;20477;-53
2022/06/15 04:57:54;;;;;;;13.20;6.22;;;11.10;99.90;;;;;;4991986;28;20485;-52
2022/06/15 05:00:22;;;;;;;18.52;6.53;;;11.10;99.90;;;;;;4991836;28;20482;-54
2022/06/15 05:02:48;;;;;;;12.43;6.10;;;11.30;99.90;;;;;;4992133;28;20034;-51
2022/06/15 05:05:14;;;;;;;10.70;5.93;;;11.40;99.90;;;;;;4992027;28;20026;-52
2022/06/15 05:07:40;;;;;;;15.30;5.97;;;11.50;99.90;;;;;;4991698;28;20030;-52
2022/06/15 05:10:10;;;;;;;15.20;6.53;;;11.50;99.90;;;;;;4991934;28;20037;-51
2022/06/15 05:12:36;;;;;;;11.95;5.65;;;11.60;99.90;;;;;;4991858;28;20033;-51
2022/06/15 05:15:02;;;;;;;20.75;10.77;;;11.70;99.90;;;;;;4991952;28;20391;-52
2022/06/15 05:17:28;;;;;;;11.02;5.78;;;11.80;99.90;;;;;;4991597;28;20478;-51
2022/06/15 05:19:53;;;;;;;16.48;6.13;;;11.90;99.90;;;;;;4991859;28;20027;-53
2022/06/15 05:22:19;;;;;;;17.27;6.13;;;12.00;99.90;;;;;;4991885;28;20153;-53
2022/06/15 05:24:45;;;;;;;21.70;7.72;;;12.00;99.90;;;;;;4991572;28;20467;-53
2022/06/15 05:27:10;;;;;;;14.75;7.80;;;12.10;99.90;;;;;;4991597;28;20359;-52
2022/06/15 05:29:37;;;;;;;20.80;8.80;;;12.30;99.90;;;;;;4991574;28;20117;-52
2022/06/15 05:32:07;;;;;;;20.17;8.63;;;12.40;99.90;;;;;;4991379;28;20073;-52
2022/06/15 05:34:33;;;;;;;16.45;7.35;;;12.40;99.90;;;;;;4991498;28;20309;-52
2022/06/15 05:36:58;;;;;;;15.95;7.53;;;12.50;99.90;;;;;;4991415;28;20172;-51
2022/06/15 05:39:25;;;;;;;11.77;6.50;;;12.50;99.90;;;;;;4991474;28;20472;-54
2022/06/15 05:41:51;;;;;;;15.27;6.20;;;12.50;99.90;;;;;;4991217;28;20023;-52
2022/06/15 05:47:04;;;;;;;19.80;6.28;;;12.70;99.90;;;;;;4991491;28;20350;-51
2022/06/15 05:49:31;;;;;;;14.18;6.32;;;12.70;99.90;;;;;;4991137;28;20037;-51
2022/06/15 05:51:57;;;;;;;18.67;6.38;;;12.80;99.90;;;;;;4991159;28;20556;-52
2022/06/15 05:54:22;;;;;;;13.48;6.18;;;13.00;99.90;;;;;;4990985;28;20122;-52
2022/06/15 05:56:48;;;;;;;15.38;5.90;;;13.10;99.90;;;;;;4990826;28;20622;-53
2022/06/15 05:59:14;;;;;;;9.90;4.88;;;13.20;99.90;;;;;;4989771;28;20425;-53
2022/06/15 06:01:40;;;;;;;17.13;5.05;;;13.30;99.90;;;;;;4990611;28;20045;-52
2022/06/15 06:04:07;;;;;;;15.03;6.63;;;13.40;99.90;;;;;;4990624;28;20053;-53
2022/06/15 06:06:33;;;;;;;9.25;4.55;;;13.40;99.90;;;;;;4990906;28;20026;-53
2022/06/15 06:08:59;;;;;;;11.63;4.25;;;13.50;99.90;;;;;;4991177;28;20371;-52
2022/06/15 06:11:25;;;;;;;8.73;4.18;;;13.60;99.90;;;;;;4990965;28;20023;-53
2022/06/15 06:13:52;;;;;;;12.27;4.80;;;13.80;99.90;;;;;;4990730;28;20480;-52
2022/06/15 06:16:18;;;;;;;15.70;4.63;;;13.90;99.90;;;;;;4990675;28;20129;-52
2022/06/15 06:18:44;;;;;;;13.23;4.45;;;14.00;99.90;;;;;;4990548;28;20547;-53
2022/06/15 06:21:10;;;;;;;13.02;4.13;;;14.10;99.90;;;;;;4990616;28;20824;-53
2022/06/15 06:23:39;;;;;;;7.95;3.53;;;14.10;99.90;;;;;;4990620;28;20417;-53
2022/06/15 06:26:06;;;;;;;11.98;3.83;;;14.30;99.90;;;;;;4990460;28;20393;-53
2022/06/15 06:28:34;;;;;;;13.27;3.85;;;14.30;99.90;;;;;;4990527;28;20030;-52
2022/06/15 06:31:03;;;;;;;9.18;3.22;;;14.40;99.90;;;;;;4990529;28;20536;-53
2022/06/15 06:33:31;;;;;;;9.43;3.67;;;14.50;99.90;;;;;;4990221;28;20057;-52
2022/06/15 06:36:00;;;;;;;10.82;3.40;;;14.60;99.90;;;;;;4990152;28;20038;-52
2022/06/15 06:38:25;;;;;;;9.68;3.30;;;14.60;99.90;;;;;;4990080;28;20034;-50
2022/06/15 06:40:53;;;;;;;7.32;2.70;;;14.80;99.90;;;;;;4990400;28;20030;-51
2022/06/15 06:43:19;;;;;;;10.25;3.67;;;14.70;99.90;;;;;;4990181;28;20318;-50
2022/06/15 06:45:46;;;;;;;9.30;3.85;;;14.80;99.90;;;;;;4990250;28;20041;-51
2022/06/15 06:48:11;;;;;;;7.72;3.35;;;14.80;99.90;;;;;;4990250;28;20026;-51
2022/06/15 06:50:40;;;;;;;6.53;3.25;;;14.90;99.90;;;;;;4990422;28;20465;-53
2022/06/15 06:53:06;;;;;;;11.98;3.10;;;14.90;99.90;;;;;;4985142;28;20420;-51
2022/06/15 06:55:32;;;;;;;11.85;3.00;;;14.90;99.90;;;;;;4990894;28;20041;-52
2022/06/15 06:58:00;;;;;;;9.30;2.22;;;15.10;99.90;;;;;;4994282;28;20786;-51
2022/06/15 07:00:26;;;;;;;8.55;2.40;;;15.20;99.90;;;;;;4994144;28;20026;-50
2022/06/15 07:02:52;;;;;;;5.53;2.00;;;15.30;99.90;;;;;;4994193;28;20034;-50
2022/06/15 07:05:18;;;;;;;10.73;1.85;;;15.50;99.90;;;;;;4994425;28;20077;-50
2022/06/15 07:07:45;;;;;;;7.03;2.43;;;15.50;99.90;;;;;;4994152;28;20056;-50
2022/06/15 07:10:12;;;;;;;4.93;1.83;;;15.60;99.90;;;;;;4993916;28;20347;-51
2022/06/15 07:12:41;;;;;;;8.25;1.88;;;15.60;99.30;;;;;;4994019;28;20057;-50
2022/06/15 07:15:08;;;;;;;7.32;2.40;;;15.70;99.90;;;;;;4993874;28;20061;-51
2022/06/15 07:17:33;;;;;;;11.10;3.03;;;15.70;99.30;;;;;;4993675;28;20074;-50
2022/06/15 07:19:59;;;;;;;7.50;2.65;;;15.70;99.90;;;;;;4993746;28;20062;-51
2022/06/15 07:22:25;;;;;;;9.45;2.25;;;15.90;99.90;;;;;;4993530;28;20034;-50
2022/06/15 07:24:50;;;;;;;9.18;2.40;;;16.00;99.60;;;;;;4994230;28;20065;-51
2022/06/15 07:27:16;;;;;;;9.70;2.60;;;16.10;99.90;;;;;;4993619;28;20027;-51
2022/06/15 07:29:43;;;;;;;8.60;2.70;;;16.20;98.90;;;;;;4993850;28;20533;-51
2022/06/15 07:32:09;;;;;;;8.30;2.28;;;16.20;99.00;;;;;;4993258;28;20050;-51
2022/06/15 07:34:35;;;;;;;9.15;2.80;;;16.30;98.20;;;;;;4993374;28;20050;-50
2022/06/15 07:37:01;;;;;;;5.13;2.10;;;16.30;98.70;;;;;;4993520;28;20035;-51
2022/06/15 07:39:30;;;;;;;7.68;2.28;;;16.40;98.40;;;;;;4993223;28;20049;-51
2022/06/15 07:41:57;;;;;;;9.07;2.40;;;16.40;97.00;;;;;;4993542;28;20030;-52
2022/06/15 07:44:25;;;;;;;9.70;2.22;;;16.40;97.00;;;;;;4993679;28;20022;-50
2022/06/15 07:49:54;;;;;;;5.70;2.47;;;16.50;97.70;;;;;;4991852;28;20034;-51
2022/06/15 07:49:55;;;;;;;7.03;1.75;;;16.60;98.40;;;;;;4993258;28;20030;-50
2022/06/15 07:52:29;;;;;;;4.13;1.63;;;16.80;95.10;;;;;;4991685;28;20030;-51
2022/06/15 07:54:56;;;;;;;9.05;1.33;;;16.90;94.40;;;;;;4993408;28;20032;-52
2022/06/15 07:57:22;;;;;;;6.15;1.52;;;16.90;96.20;;;;;;4993141;28;20041;-50
2022/06/15 07:59:48;;;;;;;5.30;1.38;;;17.00;97.30;;;;;;4993044;28;20026;-52
2022/06/15 08:02:15;;;;;;;4.15;1.45;;;17.10;95.50;;;;;;4993022;28;20038;-51
2022/06/15 08:04:40;;;;;;;5.40;1.97;;;17.10;92.80;;;;;;4992945;28;20601;-51
2022/06/15 08:07:08;;;;;;;9.93;3.03;;;17.10;93.40;;;;;;4992755;28;20038;-50
2022/06/15 08:09:34;;;;;;;6.57;2.38;;;17.30;95.40;;;;;;4992946;28;20027;-51
2022/06/15 08:12:14;;;;;;;9.25;1.90;;;17.30;94.40;;;;;;4992992;28;20033;-52
2022/06/15 08:14:42;;;;;;;8.48;1.75;;;17.30;91.60;;;;;;4991762;28;20030;-51
2022/06/15 08:17:13;;;;;;;3.40;1.45;;;17.20;91.80;;;;;;4992646;28;20042;-51
2022/06/15 08:19:43;;;;;;;8.02;2.10;;;17.30;94.00;;;;;;4992582;28;20541;-51
2022/06/15 08:22:10;;;;;;;11.70;2.67;;;17.40;93.50;;;;;;4992758;28;20031;-52
2022/06/15 08:24:37;;;;;;;11.70;2.45;;;17.50;93.70;;;;;;4992763;28;20081;-51
2022/06/15 08:27:03;;;;;;;5.13;2.20;;;17.60;94.30;;;;;;4992681;28;20053;-52
2022/06/15 08:29:31;;;;;;;9.20;2.33;;;17.70;95.90;;;;;;4992766;28;20112;-51
2022/06/15 08:31:57;;;;;;;6.05;2.20;;;18.00;94.00;;;;;;4990910;28;20409;-50
2022/06/15 08:34:36;;;;;;;6.70;1.77;;;18.00;92.60;;;;;;4992475;28;20030;-50
2022/06/15 08:37:02;;;;;;;17.20;7.40;;;18.00;93.20;;;;;;4992511;28;20085;-51
2022/06/15 08:39:27;;;;;;;8.35;2.45;;;18.20;95.20;;;;;;4992709;28;20545;-52
2022/06/15 08:42:20;;;;;;;5.25;2.15;;;18.30;93.50;;;;;;4992464;28;20443;-52
2022/06/15 08:45:14;;;;;;;12.25;2.33;;;18.10;91.50;;;;;;4992299;28;20030;-52
2022/06/15 08:48:06;;;;;;;7.45;2.15;;;18.10;92.60;;;;;;4992302;28;20030;-51
2022/06/15 08:50:42;;;;;;;8.90;2.65;;;17.90;90.50;;;;;;4992204;28;20057;-51
2022/06/15 08:53:08;;;;;;;8.75;2.75;;;17.90;91.20;;;;;;4992055;28;20505;-52
2022/06/15 08:55:41;;;;;;;7.25;2.60;;;18.00;92.40;;;;;;4991909;28;20109;-51
2022/06/15 08:58:49;;;;;;;6.65;2.20;;;18.20;94.00;;;;;;4991933;28;20125;-53
2022/06/15 09:01:33;;;;;;;10.45;4.00;;;18.20;91.50;;;;;;4991639;28;20026;-51
2022/06/15 09:04:27;;;;;;;7.55;2.55;;;18.40;93.40;;;;;;4991675;28;20355;-53
2022/06/15 09:07:18;;;;;;;12.00;3.45;;;18.60;90.50;;;;;;4991972;28;20069;-51
2022/06/15 09:09:53;;;;;;;8.77;2.78;;;18.80;92.20;;;;;;4992226;28;20049;-52
2022/06/15 09:12:49;;;;;;;6.68;2.47;;;18.90;90.60;;;;;;4991903;28;20027;-51
2022/06/15 09:15:18;;;;;;;6.03;2.33;;;19.20;93.70;;;;;;4991715;28;20478;-51
2022/06/15 09:17:46;;;;;;;19.00;2.80;;;19.30;91.90;;;;;;4991863;28;20504;-50
2022/06/15 09:20:57;;;;;;;8.57;2.38;;;19.40;92.20;;;;;;4989716;28;20121;-51
2022/06/15 09:23:31;;;;;;;30.83;4.18;;;19.60;90.70;;;;;;4988402;28;20292;-51
2022/06/15 09:26:10;;;;;;;9.70;2.78;;;19.80;87.60;;;;;;4991553;28;20034;-51
2022/06/15 09:29:01;;;;;;;8.73;3.15;;;19.70;86.70;;;;;;4991715;28;20053;-51
2022/06/15 09:31:35;;;;;;;5.55;2.40;;;19.80;90.90;;;;;;4991326;28;20524;-51
2022/06/15 09:34:04;;;;;;;10.98;2.60;;;19.90;87.60;;;;;;4991472;28;20026;-51
2022/06/15 09:36:35;;;;;;;5.75;2.63;;;19.90;87.60;;;;;;4991205;28;20117;-50
2022/06/15 09:39:02;;;;;;;9.55;3.17;;;20.00;85.40;;;;;;4991614;28;20105;-51
2022/06/15 09:41:46;;;;;;;5.82;2.13;;;20.00;84.60;;;;;;4991353;28;20030;-50
2022/06/15 09:44:30;;;;;;;8.90;2.22;;;20.10;90.90;;;;;;4991212;28;20061;-50
2022/06/15 09:47:19;;;;;;;8.77;2.33;;;20.60;91.90;;;;;;4991131;28;20046;-51
2022/06/15 09:50:11;;;;;;;;;;;20.60;83.60;;;;;;4991546;28;20077;-50
2022/06/15 09:52:39;;;;;;;11.75;3.10;;;20.60;83.80;;;;;;4975161;28;19905;-51
2022/06/15 09:55:14;;;;;;;7.55;2.15;;;20.20;83.20;;;;;;4990873;28;20121;-51
2022/06/15 09:57:41;;;;;;;14.07;3.08;;;20.20;83.50;;;;;;4982767;28;20434;-52
2022/06/15 10:00:10;;;;;;;11.80;2.35;;;20.10;85.20;;;;;;4971630;28;20019;-50
2022/06/15 10:02:39;;;;;;;7.38;2.20;;;19.50;79.80;;;;;;4971526;28;20635;-50
2022/06/15 10:05:11;;;;;;;6.97;2.13;;;19.60;81.40;;;;;;4971438;28;20457;-51
2022/06/15 10:07:43;;;;;;;4.78;1.75;;;19.60;79.20;;;;;;4971450;28;20491;-50
2022/06/15 10:10:23;;;;;;;8.85;2.42;;;19.80;82.80;;;;;;4971481;28;20541;-51
2022/06/15 10:13:02;;;;;;;7.32;1.90;;;19.90;81.80;;;;;;4971472;28;20113;-52
2022/06/15 10:15:40;;;;;;;8.52;1.83;;;19.90;78.30;;;;;;4971129;28;20031;-51
2022/06/15 10:18:31;;;;;;;6.13;1.95;;;20.00;81.60;;;;;;4970964;28;20085;-50
2022/06/15 10:21:05;;;;;;;5.80;1.80;;;20.20;77.30;;;;;;4971400;28;20033;-50
2022/06/15 10:24:11;;;;;;;11.55;2.30;;;20.40;78.80;;;;;;4971166;28;20038;-52
2022/06/15 10:26:39;;;;;;;7.53;2.15;;;20.80;82.80;;;;;;4963657;28;20540;-51
2022/06/15 10:29:26;;;;;;;4.70;1.67;;;21.00;81.60;;;;;;4971233;28;20039;-50
2022/06/15 10:32:03;;;;;;;5.63;1.52;;;21.30;82.20;;;;;;4970205;28;20130;-50
2022/06/15 10:34:30;;;;;;;6.90;1.73;;;21.30;76.50;;;;;;4971133;28;20105;-51
2022/06/15 10:36:59;;;;;;;5.32;1.95;;;21.50;70.60;;;;;;4971040;28;20035;-51
2022/06/15 10:39:30;;;;;;;20.35;2.08;;;21.50;73.20;;;;;;4970972;28;20062;-51
2022/06/15 10:42:24;;;;;;;4.22;1.77;;;21.70;77.40;;;;;;4971289;28;20027;-52
2022/06/15 10:44:56;;;;;;;8.43;1.75;;;21.70;72.20;;;;;;4970842;28;20054;-52
2022/06/15 10:47:36;;;;;;;7.63;2.13;;;21.70;75.80;;;;;;4970897;28;20034;-51
2022/06/15 10:50:07;;;;;;;8.38;1.83;;;22.00;77.60;;;;;;4970956;28;20034;-51
2022/06/15 10:52:38;;;;;;;5.50;2.38;;;22.20;75.40;;;;;;4971171;28;20046;-51
2022/06/15 11:04:29;;;;;;;9.30;2.22;;;22.70;72.60;;;;;;4990100;28;20088;-51
2022/06/15 11:07:23;;;;;;;14.10;2.13;;;22.90;77.20;;;;;;4990156;28;20037;-53
2022/06/15 11:09:55;;;;;;;6.30;1.77;;;23.20;82.70;;;;;;4990610;28;20023;-52
2022/06/15 11:12:30;;;;;;;6.78;1.83;;;23.40;70.30;;;;;;4990197;28;20068;-51
2022/06/15 11:15:13;;;;;;;5.30;1.60;;;23.20;73.70;;;;;;4990279;28;20026;-51
2022/06/15 11:18:01;;;;;;;9.43;2.63;;;23.40;72.00;;;;;;4989964;28;20101;-51
2022/06/15 11:20:33;;;;;;;7.60;1.70;;;23.70;73.90;;;;;;4989874;28;20031;-51
2022/06/15 11:23:24;;;;;;;7.18;1.75;;;23.80;71.40;;;;;;4989931;28;20031;-51
2022/06/15 11:26:51;;;;;;;9.77;1.70;;;23.90;73.10;;;;;;4990063;28;20041;-53
2022/06/15 11:28:50;;;;;;;7.10;1.77;;;24.10;73.10;;;;;;4989855;28;20509;-53
2022/06/15 11:31:17;;;;;;;5.47;1.63;;;24.20;75.40;;;;;;4990125;28;20089;-52
2022/06/15 11:33:58;;;;;;;7.10;1.95;;;24.20;70.00;;;;;;4989756;28;20048;-52
2022/06/15 11:36:51;;;;;;;6.95;2.08;;;24.20;67.10;;;;;;4989874;28;20042;-52
2022/06/15 11:39:25;;;;;;;6.50;1.98;;;23.40;64.80;;;;;;4989819;28;20729;-52
2022/06/15 11:41:55;;;;;;;6.20;2.30;;;23.60;67.20;;;;;;4991227;28;20022;-52
2022/06/15 11:44:27;;;;;;;6.03;2.00;;;23.50;65.60;;;;;;4991960;28;20334;-54
2022/06/15 11:46:55;;;;;;;5.57;2.13;;;23.50;67.40;;;;;;4993644;28;20401;-52
2022/06/15 11:49:21;;;;;;;6.60;2.20;;;23.70;67.80;;;;;;4993324;28;20061;-52
2022/06/15 11:52:14;;;;;;;5.45;2.30;;;23.90;71.50;;;;;;4993343;28;20100;-52
2022/06/15 11:54:48;;;;;;;6.43;1.80;;;24.00;68.50;;;;;;4993133;28;20581;-52
2022/06/15 11:57:33;;;;;;;9.63;2.22;;;24.30;76.50;;;;;;4988870;28;20038;-52
2022/06/15 12:00:34;;;;;;;6.60;1.73;;;24.80;74.00;;;;;;4973884;28;20023;-51
2022/06/15 12:03:09;;;;;;;4.68;1.85;;;25.00;62.90;;;;;;4973552;28;20027;-52
2022/06/15 12:05:47;;;;;;;6.22;2.33;;;24.20;66.00;;;;;;4973472;28;20027;-53
2022/06/15 12:08:22;;;;;;;8.85;1.80;;;24.00;64.70;;;;;;4973582;28;20118;-52
2022/06/15 12:10:57;;;;;;;6.15;1.90;;;23.20;64.90;;;;;;4973507;28;20038;-51
2022/06/15 12:13:51;;;;;;;7.50;2.60;;;23.70;71.20;;;;;;4973404;28;20038;-52
2022/06/15 12:16:26;;;;;;;5.57;2.08;;;24.00;66.00;;;;;;4970266;28;20051;-52
2022/06/15 12:19:03;;;;;;;5.78;1.98;;;24.10;66.60;;;;;;4973246;28;20065;-51
2022/06/15 12:21:40;;;;;;;8.68;2.50;;;24.10;72.00;;;;;;4973510;28;20106;-52
2022/06/15 12:24:38;;;;;;;4.60;1.80;;;24.50;69.60;;;;;;4973276;28;20023;-52
2022/06/15 12:27:42;;;;;;;13.20;3.33;;;24.10;62.70;;;;;;4973095;28;20054;-53
2022/06/15 12:30:40;;;;;;;8.70;1.73;;;24.10;61.80;;;;;;4950251;28;20050;-52
2022/06/15 12:33:20;;;;;;;6.30;2.10;;;23.70;62.50;;;;;;4971176;28;20043;-53
2022/06/15 12:35:57;;;;;;;4.82;1.60;;;23.60;65.40;;;;;;4972977;28;20108;-51
2022/06/15 12:39:01;;;;;;;6.50;1.90;;;23.80;65.80;;;;;;4973050;28;20042;-52
2022/06/15 12:44:22;;;;;;;8.10;2.35;;;24.10;65.90;;;;;;4973030;28;20442;-51
2022/06/15 12:46:49;;;;;;;5.18;1.40;;;23.80;64.90;;;;;;4972985;28;20034;-52
2022/06/15 12:49:34;;;;;;;7.13;1.95;;;23.80;64.40;;;;;;4972900;28;20625;-52
2022/06/15 12:52:05;;;;;;;7.55;2.10;;;23.50;64.40;;;;;;4972885;28;20035;-51
2022/06/15 12:54:38;;;;;;;4.47;1.42;;;23.50;65.90;;;;;;4971627;28;20026;-53
2022/06/15 12:57:28;;;;;;;8.93;2.40;;;23.70;63.50;;;;;;4975162;28;20038;-51
2022/06/15 13:00:06;;;;;;;6.43;2.10;;;24.00;68.80;;;;;;4992332;28;20046;-52
2022/06/15 13:02:58;;;;;;;5.22;1.70;;;24.10;61.90;;;;;;4991885;28;20041;-52
2022/06/15 13:05:30;;;;;;;4.18;1.55;;;24.00;62.00;;;;;;4991849;28;20031;-51
2022/06/15 13:08:17;;;;;;;4.30;1.92;;;24.00;61.10;;;;;;4991984;28;20394;-51
2022/06/15 13:10:55;;;;;;;6.18;1.70;;;24.40;62.60;;;;;;4991603;28;20041;-52
2022/06/15 13:13:33;;;;;;;7.80;1.65;;;24.10;61.30;;;;;;4991970;28;20029;-51
2022/06/15 13:16:08;;;;;;;6.13;1.90;;;24.00;59.10;;;;;;4992000;28;20041;-53
2022/06/15 13:18:55;;;;;;;7.80;1.70;;;24.20;62.20;;;;;;4991921;28;20105;-50
2022/06/15 13:21:23;;;;;;;4.00;1.50;;;24.20;63.10;;;;;;4991612;28;20057;-55
2022/06/15 13:24:06;;;;;;;5.30;1.80;;;24.20;63.00;;;;;;4991903;28;20042;-51
2022/06/15 13:26:38;;;;;;;3.42;1.48;;;24.40;63.80;;;;;;4991831;28;20029;-51
2022/06/15 13:29:04;;;;;;;4.90;1.60;;;24.70;63.20;;;;;;4991461;28;20033;-52
2022/06/15 13:31:42;;;;;;;5.20;1.60;;;24.60;62.60;;;;;;4991488;28;20033;-51